<?xml version="1.0" encoding="UTF-8" standalone="no" ?>
<gpx xmlns="http://www.topografix.com/GPX/1/1" xmlns:xsi="http://www.w3.org/2001/XMLSchema-instance" xsi:schemaLocation="http://www.topografix.com/GPX/1/1 http://www.topografix.com/GPX/1/1/gpx.xsd" version="1.1" creator="VisuGPX - https://www.visugpx.com">
  <metadata>
    <name>Variante pour hébergement au Château de Broye</name>
    <desc><![CDATA[

]]></desc>
  </metadata>
  <trk>
    <name><![CDATA[Variante pour hébergement au Château de Broye]]></name>
    <extensions>
      <line xmlns="http://www.topografix.com/GPX/gpx_style/0/2">
        <color>ff8040</color>
        <width>4</width>
        <dasharray>8</dasharray>
      </line>
    </extensions>
    <trkseg>
      <trkpt lat="46.87941" lon="4.28549">
        <ele>521.75</ele>
        <time>2020-07-09T12:11:09.999Z</time>
      </trkpt>
      <trkpt lat="46.87941" lon="4.28549">
        <ele>521.75</ele>
        <time>2020-07-09T12:11:09.999Z</time>
      </trkpt>
      <trkpt lat="46.87941" lon="4.28549">
        <ele>521.75</ele>
        <time>2020-07-09T12:11:09.999Z</time>
      </trkpt>
      <trkpt lat="46.87941" lon="4.28549">
        <ele>521.75</ele>
        <time>2020-07-09T12:11:09.999Z</time>
      </trkpt>
      <trkpt lat="46.87941" lon="4.28549">
        <ele>521.75</ele>
        <time>2020-07-09T12:11:09.999Z</time>
      </trkpt>
      <trkpt lat="46.87941" lon="4.28549">
        <ele>521.75</ele>
        <time>2020-07-09T12:11:09.999Z</time>
      </trkpt>
      <trkpt lat="46.87941" lon="4.28549">
        <ele>521.75</ele>
        <time>2020-07-09T12:11:09.999Z</time>
      </trkpt>
      <trkpt lat="46.87941" lon="4.28549">
        <ele>521.75</ele>
        <time>2020-07-09T12:11:09.999Z</time>
      </trkpt>
      <trkpt lat="46.87941" lon="4.28549">
        <ele>521.75</ele>
        <time>2020-07-09T12:11:09.999Z</time>
      </trkpt>
      <trkpt lat="46.87941" lon="4.28549">
        <ele>521.75</ele>
        <time>2020-07-09T12:11:09.999Z</time>
      </trkpt>
      <trkpt lat="46.87941" lon="4.28549">
        <ele>521.75</ele>
        <time>2020-07-09T12:11:09.999Z</time>
      </trkpt>
      <trkpt lat="46.87961" lon="4.2854">
        <ele>500.72</ele>
        <time>2020-07-09T12:14:22.999Z</time>
      </trkpt>
      <trkpt lat="46.87964" lon="4.28528">
        <ele>499.78</ele>
        <time>2020-07-09T12:14:29.999Z</time>
      </trkpt>
      <trkpt lat="46.87971" lon="4.28518">
        <ele>498.75</ele>
        <time>2020-07-09T12:14:38.999Z</time>
      </trkpt>
      <trkpt lat="46.87974" lon="4.28505">
        <ele>497.71</ele>
        <time>2020-07-09T12:14:50.999Z</time>
      </trkpt>
      <trkpt lat="46.8798" lon="4.28495">
        <ele>496.76</ele>
        <time>2020-07-09T12:15:08.999Z</time>
      </trkpt>
      <trkpt lat="46.87989" lon="4.28496">
        <ele>495.34</ele>
        <time>2020-07-09T12:15:27.999Z</time>
      </trkpt>
      <trkpt lat="46.87995" lon="4.28486">
        <ele>494.29</ele>
        <time>2020-07-09T12:15:40.999Z</time>
      </trkpt>
      <trkpt lat="46.88002" lon="4.28476">
        <ele>492.95</ele>
        <time>2020-07-09T12:16:00.999Z</time>
      </trkpt>
      <trkpt lat="46.88011" lon="4.28485">
        <ele>492.39</ele>
        <time>2020-07-09T12:16:09.999Z</time>
      </trkpt>
      <trkpt lat="46.88018" lon="4.28492">
        <ele>491.63</ele>
        <time>2020-07-09T12:16:21.999Z</time>
      </trkpt>
      <trkpt lat="46.88028" lon="4.28495">
        <ele>491.27</ele>
        <time>2020-07-09T12:16:26.999Z</time>
      </trkpt>
      <trkpt lat="46.88036" lon="4.28502">
        <ele>490.7</ele>
        <time>2020-07-09T12:16:34.999Z</time>
      </trkpt>
      <trkpt lat="46.88044" lon="4.28511">
        <ele>490.22</ele>
        <time>2020-07-09T12:16:41.999Z</time>
      </trkpt>
      <trkpt lat="46.8805" lon="4.2852">
        <ele>489.79</ele>
        <time>2020-07-09T12:16:48.999Z</time>
      </trkpt>
      <trkpt lat="46.88058" lon="4.28528">
        <ele>489.32</ele>
        <time>2020-07-09T12:16:56.999Z</time>
      </trkpt>
      <trkpt lat="46.88065" lon="4.28538">
        <ele>488.85</ele>
        <time>2020-07-09T12:17:04.999Z</time>
      </trkpt>
      <trkpt lat="46.88067" lon="4.28552">
        <ele>488.39</ele>
        <time>2020-07-09T12:17:12.999Z</time>
      </trkpt>
      <trkpt lat="46.88071" lon="4.28565">
        <ele>487.99</ele>
        <time>2020-07-09T12:17:19.999Z</time>
      </trkpt>
      <trkpt lat="46.88071" lon="4.28579">
        <ele>487.53</ele>
        <time>2020-07-09T12:17:27.999Z</time>
      </trkpt>
      <trkpt lat="46.8807" lon="4.28594">
        <ele>487</ele>
        <time>2020-07-09T12:17:35.999Z</time>
      </trkpt>
      <trkpt lat="46.88068" lon="4.28608">
        <ele>486.36</ele>
        <time>2020-07-09T12:17:44.999Z</time>
      </trkpt>
      <trkpt lat="46.88065" lon="4.28622">
        <ele>485.63</ele>
        <time>2020-07-09T12:17:54.999Z</time>
      </trkpt>
      <trkpt lat="46.88066" lon="4.28636">
        <ele>485.2</ele>
        <time>2020-07-09T12:18:00.999Z</time>
      </trkpt>
      <trkpt lat="46.88071" lon="4.28649">
        <ele>484.51</ele>
        <time>2020-07-09T12:18:10.999Z</time>
      </trkpt>
      <trkpt lat="46.88076" lon="4.28659">
        <ele>483.83</ele>
        <time>2020-07-09T12:18:20.999Z</time>
      </trkpt>
      <trkpt lat="46.88077" lon="4.28673">
        <ele>483.2</ele>
        <time>2020-07-09T12:18:29.999Z</time>
      </trkpt>
      <trkpt lat="46.88078" lon="4.28686">
        <ele>482.55</ele>
        <time>2020-07-09T12:18:40.000Z</time>
      </trkpt>
      <trkpt lat="46.88082" lon="4.28701">
        <ele>481.95</ele>
        <time>2020-07-09T12:18:48.000Z</time>
      </trkpt>
      <trkpt lat="46.88085" lon="4.28714">
        <ele>481.42</ele>
        <time>2020-07-09T12:18:55.000Z</time>
      </trkpt>
      <trkpt lat="46.88085" lon="4.28729">
        <ele>480.9</ele>
        <time>2020-07-09T12:19:02.000Z</time>
      </trkpt>
      <trkpt lat="46.88089" lon="4.28742">
        <ele>480.31</ele>
        <time>2020-07-09T12:19:10.000Z</time>
      </trkpt>
      <trkpt lat="46.88092" lon="4.28755">
        <ele>479.64</ele>
        <time>2020-07-09T12:19:20.000Z</time>
      </trkpt>
      <trkpt lat="46.88094" lon="4.28769">
        <ele>479.16</ele>
        <time>2020-07-09T12:19:28.000Z</time>
      </trkpt>
      <trkpt lat="46.88094" lon="4.28782">
        <ele>478.69</ele>
        <time>2020-07-09T12:19:36.000Z</time>
      </trkpt>
      <trkpt lat="46.88098" lon="4.28794">
        <ele>478.29</ele>
        <time>2020-07-09T12:19:43.000Z</time>
      </trkpt>
      <trkpt lat="46.88089" lon="4.28802">
        <ele>476.36</ele>
        <time>2020-07-09T12:20:59.000Z</time>
      </trkpt>
      <trkpt lat="46.8808" lon="4.28807">
        <ele>476.01</ele>
        <time>2020-07-09T12:21:08.000Z</time>
      </trkpt>
      <trkpt lat="46.88071" lon="4.28811">
        <ele>475.69</ele>
        <time>2020-07-09T12:21:17.000Z</time>
      </trkpt>
      <trkpt lat="46.88063" lon="4.28816">
        <ele>475.5</ele>
        <time>2020-07-09T12:21:22.000Z</time>
      </trkpt>
      <trkpt lat="46.88053" lon="4.28822">
        <ele>475.3</ele>
        <time>2020-07-09T12:21:28.000Z</time>
      </trkpt>
      <trkpt lat="46.88044" lon="4.28819">
        <ele>475</ele>
        <time>2020-07-09T12:21:39.000Z</time>
      </trkpt>
      <trkpt lat="46.88035" lon="4.28823">
        <ele>474.8</ele>
        <time>2020-07-09T12:21:46.000Z</time>
      </trkpt>
      <trkpt lat="46.88026" lon="4.28828">
        <ele>474.6</ele>
        <time>2020-07-09T12:21:53.000Z</time>
      </trkpt>
      <trkpt lat="46.88016" lon="4.28827">
        <ele>474.38</ele>
        <time>2020-07-09T12:22:00.000Z</time>
      </trkpt>
      <trkpt lat="46.88006" lon="4.28829">
        <ele>474.14</ele>
        <time>2020-07-09T12:22:08.000Z</time>
      </trkpt>
      <trkpt lat="46.87998" lon="4.28839">
        <ele>473.8</ele>
        <time>2020-07-09T12:22:20.000Z</time>
      </trkpt>
      <trkpt lat="46.87991" lon="4.28848">
        <ele>473.53</ele>
        <time>2020-07-09T12:22:30.000Z</time>
      </trkpt>
      <trkpt lat="46.87983" lon="4.28857">
        <ele>473.31</ele>
        <time>2020-07-09T12:22:38.000Z</time>
      </trkpt>
      <trkpt lat="46.87975" lon="4.28862">
        <ele>473.1</ele>
        <time>2020-07-09T12:22:46.000Z</time>
      </trkpt>
      <trkpt lat="46.87967" lon="4.28869">
        <ele>472.88</ele>
        <time>2020-07-09T12:22:55.000Z</time>
      </trkpt>
      <trkpt lat="46.87961" lon="4.28881">
        <ele>472.6</ele>
        <time>2020-07-09T12:23:09.000Z</time>
      </trkpt>
      <trkpt lat="46.87957" lon="4.28893">
        <ele>472.47</ele>
        <time>2020-07-09T12:23:16.000Z</time>
      </trkpt>
      <trkpt lat="46.87953" lon="4.28905">
        <ele>472.27</ele>
        <time>2020-07-09T12:23:26.000Z</time>
      </trkpt>
      <trkpt lat="46.87945" lon="4.28916">
        <ele>472.05</ele>
        <time>2020-07-09T12:23:37.000Z</time>
      </trkpt>
      <trkpt lat="46.8794" lon="4.28927">
        <ele>471.9</ele>
        <time>2020-07-09T12:23:46.000Z</time>
      </trkpt>
      <trkpt lat="46.87934" lon="4.28937">
        <ele>471.76</ele>
        <time>2020-07-09T12:23:54.000Z</time>
      </trkpt>
      <trkpt lat="46.87927" lon="4.28945">
        <ele>471.55</ele>
        <time>2020-07-09T12:24:08.000Z</time>
      </trkpt>
      <trkpt lat="46.87934" lon="4.28953">
        <ele>470.48</ele>
        <time>2020-07-09T12:25:06.000Z</time>
      </trkpt>
      <trkpt lat="46.87939" lon="4.28965">
        <ele>470.16</ele>
        <time>2020-07-09T12:25:19.000Z</time>
      </trkpt>
      <trkpt lat="46.87948" lon="4.2897">
        <ele>469.74</ele>
        <time>2020-07-09T12:25:41.000Z</time>
      </trkpt>
      <trkpt lat="46.87956" lon="4.28979">
        <ele>469.55</ele>
        <time>2020-07-09T12:25:49.000Z</time>
      </trkpt>
      <trkpt lat="46.87964" lon="4.28984">
        <ele>469.32</ele>
        <time>2020-07-09T12:26:00.000Z</time>
      </trkpt>
      <trkpt lat="46.8797" lon="4.28996">
        <ele>469.05</ele>
        <time>2020-07-09T12:26:13.000Z</time>
      </trkpt>
      <trkpt lat="46.87973" lon="4.2901">
        <ele>468.89</ele>
        <time>2020-07-09T12:26:21.000Z</time>
      </trkpt>
      <trkpt lat="46.87978" lon="4.2902">
        <ele>467.53</ele>
        <time>2020-07-09T12:28:02.000Z</time>
      </trkpt>
      <trkpt lat="46.87986" lon="4.29027">
        <ele>467.18</ele>
        <time>2020-07-09T12:28:15.000Z</time>
      </trkpt>
      <trkpt lat="46.87996" lon="4.29029">
        <ele>466.89</ele>
        <time>2020-07-09T12:28:26.000Z</time>
      </trkpt>
      <trkpt lat="46.88002" lon="4.29039">
        <ele>466.59</ele>
        <time>2020-07-09T12:28:56.000Z</time>
      </trkpt>
      <trkpt lat="46.88007" lon="4.29051">
        <ele>466.22</ele>
        <time>2020-07-09T12:29:08.000Z</time>
      </trkpt>
      <trkpt lat="46.88014" lon="4.29061">
        <ele>465.48</ele>
        <time>2020-07-09T12:29:35.000Z</time>
      </trkpt>
      <trkpt lat="46.88021" lon="4.29071">
        <ele>465.17</ele>
        <time>2020-07-09T12:29:45.000Z</time>
      </trkpt>
      <trkpt lat="46.88025" lon="4.29083">
        <ele>464.91</ele>
        <time>2020-07-09T12:29:54.000Z</time>
      </trkpt>
      <trkpt lat="46.88029" lon="4.29095">
        <ele>464.63</ele>
        <time>2020-07-09T12:30:05.000Z</time>
      </trkpt>
      <trkpt lat="46.88031" lon="4.2911">
        <ele>464.38</ele>
        <time>2020-07-09T12:30:15.000Z</time>
      </trkpt>
      <trkpt lat="46.88037" lon="4.29121">
        <ele>464.13</ele>
        <time>2020-07-09T12:30:27.000Z</time>
      </trkpt>
      <trkpt lat="46.8804" lon="4.29134">
        <ele>463.94</ele>
        <time>2020-07-09T12:30:35.000Z</time>
      </trkpt>
      <trkpt lat="46.88041" lon="4.29148">
        <ele>463.74</ele>
        <time>2020-07-09T12:30:42.000Z</time>
      </trkpt>
      <trkpt lat="46.88042" lon="4.29161">
        <ele>463.43</ele>
        <time>2020-07-09T12:30:53.000Z</time>
      </trkpt>
      <trkpt lat="46.88046" lon="4.29174">
        <ele>462.97</ele>
        <time>2020-07-09T12:31:09.000Z</time>
      </trkpt>
      <trkpt lat="46.88051" lon="4.29186">
        <ele>462.71</ele>
        <time>2020-07-09T12:31:18.000Z</time>
      </trkpt>
      <trkpt lat="46.88056" lon="4.29197">
        <ele>462.37</ele>
        <time>2020-07-09T12:31:29.000Z</time>
      </trkpt>
      <trkpt lat="46.88063" lon="4.29204">
        <ele>461.91</ele>
        <time>2020-07-09T12:31:48.000Z</time>
      </trkpt>
      <trkpt lat="46.88073" lon="4.29208">
        <ele>461.53</ele>
        <time>2020-07-09T12:32:00.000Z</time>
      </trkpt>
      <trkpt lat="46.88082" lon="4.29208">
        <ele>461.15</ele>
        <time>2020-07-09T12:32:11.000Z</time>
      </trkpt>
      <trkpt lat="46.88091" lon="4.29217">
        <ele>460.91</ele>
        <time>2020-07-09T12:32:19.000Z</time>
      </trkpt>
      <trkpt lat="46.88095" lon="4.29231">
        <ele>460.61</ele>
        <time>2020-07-09T12:32:28.000Z</time>
      </trkpt>
      <trkpt lat="46.88102" lon="4.29241">
        <ele>460.39</ele>
        <time>2020-07-09T12:32:35.000Z</time>
      </trkpt>
      <trkpt lat="46.88104" lon="4.29257">
        <ele>459.95</ele>
        <time>2020-07-09T12:32:49.000Z</time>
      </trkpt>
      <trkpt lat="46.88102" lon="4.29271">
        <ele>459.7</ele>
        <time>2020-07-09T12:32:57.000Z</time>
      </trkpt>
      <trkpt lat="46.88101" lon="4.29284">
        <ele>459.44</ele>
        <time>2020-07-09T12:33:05.000Z</time>
      </trkpt>
      <trkpt lat="46.881" lon="4.29298">
        <ele>458.98</ele>
        <time>2020-07-09T12:33:19.000Z</time>
      </trkpt>
      <trkpt lat="46.88095" lon="4.2931">
        <ele>458.7</ele>
        <time>2020-07-09T12:33:27.000Z</time>
      </trkpt>
      <trkpt lat="46.88094" lon="4.29324">
        <ele>458.37</ele>
        <time>2020-07-09T12:33:39.000Z</time>
      </trkpt>
      <trkpt lat="46.88096" lon="4.29338">
        <ele>453.44</ele>
        <time>2020-07-09T12:35:13.000Z</time>
      </trkpt>
      <trkpt lat="46.88101" lon="4.29349">
        <ele>451.67</ele>
        <time>2020-07-09T12:35:27.000Z</time>
      </trkpt>
      <trkpt lat="46.88102" lon="4.29364">
        <ele>450.1</ele>
        <time>2020-07-09T12:35:37.000Z</time>
      </trkpt>
      <trkpt lat="46.88106" lon="4.29376">
        <ele>448.79</ele>
        <time>2020-07-09T12:35:44.000Z</time>
      </trkpt>
      <trkpt lat="46.88105" lon="4.2939">
        <ele>447.83</ele>
        <time>2020-07-09T12:35:49.000Z</time>
      </trkpt>
      <trkpt lat="46.88108" lon="4.29403">
        <ele>446.69</ele>
        <time>2020-07-09T12:35:55.000Z</time>
      </trkpt>
      <trkpt lat="46.88112" lon="4.29415">
        <ele>444.65</ele>
        <time>2020-07-09T12:36:07.000Z</time>
      </trkpt>
      <trkpt lat="46.88117" lon="4.29426">
        <ele>443.29</ele>
        <time>2020-07-09T12:36:15.000Z</time>
      </trkpt>
      <trkpt lat="46.88118" lon="4.2944">
        <ele>441.92</ele>
        <time>2020-07-09T12:36:26.000Z</time>
      </trkpt>
      <trkpt lat="46.88118" lon="4.29454">
        <ele>440.16</ele>
        <time>2020-07-09T12:36:37.000Z</time>
      </trkpt>
      <trkpt lat="46.88124" lon="4.29464">
        <ele>438.31</ele>
        <time>2020-07-09T12:36:50.000Z</time>
      </trkpt>
      <trkpt lat="46.88128" lon="4.29476">
        <ele>436.99</ele>
        <time>2020-07-09T12:37:01.000Z</time>
      </trkpt>
      <trkpt lat="46.8813" lon="4.2949">
        <ele>435.99</ele>
        <time>2020-07-09T12:37:10.000Z</time>
      </trkpt>
      <trkpt lat="46.88133" lon="4.29503">
        <ele>435.07</ele>
        <time>2020-07-09T12:37:19.000Z</time>
      </trkpt>
      <trkpt lat="46.88139" lon="4.29514">
        <ele>433.84</ele>
        <time>2020-07-09T12:37:32.000Z</time>
      </trkpt>
      <trkpt lat="46.88147" lon="4.29522">
        <ele>432.87</ele>
        <time>2020-07-09T12:37:43.000Z</time>
      </trkpt>
      <trkpt lat="46.88156" lon="4.29529">
        <ele>431.49</ele>
        <time>2020-07-09T12:38:05.000Z</time>
      </trkpt>
      <trkpt lat="46.88164" lon="4.29536">
        <ele>430.24</ele>
        <time>2020-07-09T12:38:16.000Z</time>
      </trkpt>
      <trkpt lat="46.88169" lon="4.29548">
        <ele>429.16</ele>
        <time>2020-07-09T12:38:26.000Z</time>
      </trkpt>
      <trkpt lat="46.88176" lon="4.29558">
        <ele>427.99</ele>
        <time>2020-07-09T12:38:37.000Z</time>
      </trkpt>
      <trkpt lat="46.88181" lon="4.29569">
        <ele>426.88</ele>
        <time>2020-07-09T12:38:48.000Z</time>
      </trkpt>
      <trkpt lat="46.88186" lon="4.2958">
        <ele>426.07</ele>
        <time>2020-07-09T12:38:56.000Z</time>
      </trkpt>
      <trkpt lat="46.88191" lon="4.29592">
        <ele>424.69</ele>
        <time>2020-07-09T12:39:11.000Z</time>
      </trkpt>
      <trkpt lat="46.88194" lon="4.29597">
        <ele>420</ele>
        <time>2020-07-09T12:45:12.999Z</time>
      </trkpt>
      <trkpt lat="46.88194" lon="4.29584">
        <ele>419.96</ele>
        <time>2020-07-09T12:45:23.999Z</time>
      </trkpt>
      <trkpt lat="46.88198" lon="4.29569">
        <ele>419.95</ele>
        <time>2020-07-09T12:45:31.999Z</time>
      </trkpt>
      <trkpt lat="46.88198" lon="4.29553">
        <ele>419.98</ele>
        <time>2020-07-09T12:45:38.999Z</time>
      </trkpt>
      <trkpt lat="46.88193" lon="4.29541">
        <ele>420.06</ele>
        <time>2020-07-09T12:45:50.999Z</time>
      </trkpt>
      <trkpt lat="46.88194" lon="4.29527">
        <ele>420.16</ele>
        <time>2020-07-09T12:46:02.999Z</time>
      </trkpt>
      <trkpt lat="46.88194" lon="4.29514">
        <ele>420.25</ele>
        <time>2020-07-09T12:46:14.999Z</time>
      </trkpt>
      <trkpt lat="46.88194" lon="4.295">
        <ele>420.33</ele>
        <time>2020-07-09T12:46:28.999Z</time>
      </trkpt>
      <trkpt lat="46.88171" lon="4.29509">
        <ele>454.4</ele>
        <time>2020-07-10T04:44:44.622Z</time>
      </trkpt>
      <trkpt lat="46.88171" lon="4.29509">
        <ele>373</ele>
      </trkpt>
      <trkpt lat="46.88171" lon="4.29509">
        <ele>373</ele>
      </trkpt>
      <trkpt lat="46.88171" lon="4.29509">
        <ele>373</ele>
      </trkpt>
      <trkpt lat="46.88172" lon="4.29508">
        <ele>373</ele>
      </trkpt>
      <trkpt lat="46.88171" lon="4.29509">
        <ele>373</ele>
      </trkpt>
      <trkpt lat="46.88171" lon="4.29509">
        <ele>373</ele>
      </trkpt>
      <trkpt lat="46.88171" lon="4.29509">
        <ele>454.4</ele>
        <time>2020-07-10T04:44:44.622Z</time>
      </trkpt>
      <trkpt lat="46.88197" lon="4.29528">
        <ele>429.25</ele>
        <time>2020-07-10T04:45:22.000Z</time>
      </trkpt>
      <trkpt lat="46.88194" lon="4.29542">
        <ele>427.28</ele>
        <time>2020-07-10T04:47:03.000Z</time>
      </trkpt>
      <trkpt lat="46.88194" lon="4.29556">
        <ele>426.76</ele>
        <time>2020-07-10T04:47:09.000Z</time>
      </trkpt>
      <trkpt lat="46.88196" lon="4.29569">
        <ele>425.96</ele>
        <time>2020-07-10T04:47:19.000Z</time>
      </trkpt>
      <trkpt lat="46.88195" lon="4.29584">
        <ele>425.34</ele>
        <time>2020-07-10T04:47:28.000Z</time>
      </trkpt>
      <trkpt lat="46.88195" lon="4.29598">
        <ele>424.78</ele>
        <time>2020-07-10T04:47:37.000Z</time>
      </trkpt>
      <trkpt lat="46.88186" lon="4.296">
        <ele>424.08</ele>
        <time>2020-07-10T04:47:51.000Z</time>
      </trkpt>
      <trkpt lat="46.88182" lon="4.29587">
        <ele>423.76</ele>
        <time>2020-07-10T04:47:59.000Z</time>
      </trkpt>
      <trkpt lat="46.88179" lon="4.29575">
        <ele>423.34</ele>
        <time>2020-07-10T04:48:12.000Z</time>
      </trkpt>
      <trkpt lat="46.88165" lon="4.29563">
        <ele>422.97</ele>
        <time>2020-07-10T04:48:25.000Z</time>
      </trkpt>
      <trkpt lat="46.88161" lon="4.29551">
        <ele>422.35</ele>
        <time>2020-07-10T04:48:53.000Z</time>
      </trkpt>
      <trkpt lat="46.88157" lon="4.29536">
        <ele>422.26</ele>
        <time>2020-07-10T04:48:57.000Z</time>
      </trkpt>
      <trkpt lat="46.88152" lon="4.29523">
        <ele>421.84</ele>
        <time>2020-07-10T04:49:09.000Z</time>
      </trkpt>
      <trkpt lat="46.88144" lon="4.29514">
        <ele>421.59</ele>
        <time>2020-07-10T04:49:16.000Z</time>
      </trkpt>
      <trkpt lat="46.88139" lon="4.295">
        <ele>421.32</ele>
        <time>2020-07-10T04:49:23.000Z</time>
      </trkpt>
      <trkpt lat="46.88132" lon="4.29486">
        <ele>421.17</ele>
        <time>2020-07-10T04:49:27.000Z</time>
      </trkpt>
      <trkpt lat="46.88128" lon="4.29475">
        <ele>420.93</ele>
        <time>2020-07-10T04:49:34.000Z</time>
      </trkpt>
      <trkpt lat="46.88121" lon="4.29462">
        <ele>420.61</ele>
        <time>2020-07-10T04:49:45.000Z</time>
      </trkpt>
      <trkpt lat="46.88111" lon="4.29467">
        <ele>420.34</ele>
        <time>2020-07-10T04:49:54.000Z</time>
      </trkpt>
      <trkpt lat="46.88108" lon="4.29482">
        <ele>420.07</ele>
        <time>2020-07-10T04:50:03.000Z</time>
      </trkpt>
      <trkpt lat="46.88105" lon="4.29495">
        <ele>419.8</ele>
        <time>2020-07-10T04:50:13.000Z</time>
      </trkpt>
      <trkpt lat="46.88101" lon="4.29508">
        <ele>419.51</ele>
        <time>2020-07-10T04:50:24.000Z</time>
      </trkpt>
      <trkpt lat="46.88095" lon="4.29518">
        <ele>419.21</ele>
        <time>2020-07-10T04:50:33.000Z</time>
      </trkpt>
      <trkpt lat="46.88087" lon="4.29527">
        <ele>418.78</ele>
        <time>2020-07-10T04:50:45.000Z</time>
      </trkpt>
      <trkpt lat="46.88079" lon="4.29532">
        <ele>418.4</ele>
        <time>2020-07-10T04:50:54.000Z</time>
      </trkpt>
      <trkpt lat="46.88069" lon="4.29534">
        <ele>418.08</ele>
        <time>2020-07-10T04:51:01.000Z</time>
      </trkpt>
      <trkpt lat="46.8806" lon="4.29538">
        <ele>417.6</ele>
        <time>2020-07-10T04:51:11.000Z</time>
      </trkpt>
      <trkpt lat="46.88051" lon="4.29542">
        <ele>417.28</ele>
        <time>2020-07-10T04:51:17.000Z</time>
      </trkpt>
      <trkpt lat="46.88042" lon="4.29539">
        <ele>416.91</ele>
        <time>2020-07-10T04:51:24.000Z</time>
      </trkpt>
      <trkpt lat="46.88032" lon="4.29536">
        <ele>416.41</ele>
        <time>2020-07-10T04:51:34.000Z</time>
      </trkpt>
      <trkpt lat="46.88023" lon="4.29537">
        <ele>416.11</ele>
        <time>2020-07-10T04:51:40.000Z</time>
      </trkpt>
      <trkpt lat="46.88015" lon="4.29543">
        <ele>415.47</ele>
        <time>2020-07-10T04:51:52.000Z</time>
      </trkpt>
      <trkpt lat="46.88008" lon="4.29557">
        <ele>414.73</ele>
        <time>2020-07-10T04:52:03.000Z</time>
      </trkpt>
      <trkpt lat="46.88004" lon="4.29575">
        <ele>414.53</ele>
        <time>2020-07-10T04:52:06.000Z</time>
      </trkpt>
      <trkpt lat="46.87999" lon="4.29587">
        <ele>414.06</ele>
        <time>2020-07-10T04:52:13.000Z</time>
      </trkpt>
      <trkpt lat="46.87992" lon="4.29596">
        <ele>413.62</ele>
        <time>2020-07-10T04:52:20.000Z</time>
      </trkpt>
      <trkpt lat="46.87983" lon="4.29601">
        <ele>413.19</ele>
        <time>2020-07-10T04:52:28.000Z</time>
      </trkpt>
      <trkpt lat="46.87973" lon="4.29599">
        <ele>412.91</ele>
        <time>2020-07-10T04:52:34.000Z</time>
      </trkpt>
      <trkpt lat="46.87964" lon="4.29599">
        <ele>412.7</ele>
        <time>2020-07-10T04:52:39.000Z</time>
      </trkpt>
      <trkpt lat="46.87955" lon="4.29597">
        <ele>412.41</ele>
        <time>2020-07-10T04:52:47.000Z</time>
      </trkpt>
      <trkpt lat="46.87946" lon="4.29592">
        <ele>412.24</ele>
        <time>2020-07-10T04:52:52.000Z</time>
      </trkpt>
      <trkpt lat="46.87938" lon="4.29585">
        <ele>412.02</ele>
        <time>2020-07-10T04:52:59.000Z</time>
      </trkpt>
      <trkpt lat="46.87929" lon="4.29579">
        <ele>411.76</ele>
        <time>2020-07-10T04:53:07.000Z</time>
      </trkpt>
      <trkpt lat="46.87922" lon="4.29588">
        <ele>411.41</ele>
        <time>2020-07-10T04:53:18.000Z</time>
      </trkpt>
      <trkpt lat="46.8792" lon="4.29603">
        <ele>411.08</ele>
        <time>2020-07-10T04:53:28.000Z</time>
      </trkpt>
      <trkpt lat="46.8792" lon="4.29619">
        <ele>410.79</ele>
        <time>2020-07-10T04:53:35.000Z</time>
      </trkpt>
      <trkpt lat="46.87916" lon="4.29631">
        <ele>410.39</ele>
        <time>2020-07-10T04:53:43.000Z</time>
      </trkpt>
      <trkpt lat="46.87914" lon="4.29644">
        <ele>409.97</ele>
        <time>2020-07-10T04:53:50.000Z</time>
      </trkpt>
      <trkpt lat="46.87913" lon="4.29657">
        <ele>409.37</ele>
        <time>2020-07-10T04:53:59.000Z</time>
      </trkpt>
      <trkpt lat="46.87912" lon="4.2967">
        <ele>408.61</ele>
        <time>2020-07-10T04:54:09.000Z</time>
      </trkpt>
      <trkpt lat="46.87906" lon="4.29684">
        <ele>407.99</ele>
        <time>2020-07-10T04:54:17.000Z</time>
      </trkpt>
      <trkpt lat="46.87901" lon="4.297">
        <ele>407.83</ele>
        <time>2020-07-10T04:54:19.000Z</time>
      </trkpt>
      <trkpt lat="46.87903" lon="4.29713">
        <ele>407.44</ele>
        <time>2020-07-10T04:54:24.000Z</time>
      </trkpt>
      <trkpt lat="46.87904" lon="4.29726">
        <ele>406.48</ele>
        <time>2020-07-10T04:54:38.000Z</time>
      </trkpt>
      <trkpt lat="46.8791" lon="4.29737">
        <ele>405.47</ele>
        <time>2020-07-10T04:54:58.999Z</time>
      </trkpt>
      <trkpt lat="46.87915" lon="4.29749">
        <ele>405.21</ele>
        <time>2020-07-10T04:55:04.999Z</time>
      </trkpt>
      <trkpt lat="46.87917" lon="4.29764">
        <ele>404.93</ele>
        <time>2020-07-10T04:55:10.999Z</time>
      </trkpt>
      <trkpt lat="46.87919" lon="4.2978">
        <ele>404.61</ele>
        <time>2020-07-10T04:55:17.999Z</time>
      </trkpt>
      <trkpt lat="46.8792" lon="4.29795">
        <ele>404.39</ele>
        <time>2020-07-10T04:55:22.999Z</time>
      </trkpt>
      <trkpt lat="46.87916" lon="4.29808">
        <ele>404.18</ele>
        <time>2020-07-10T04:55:27.999Z</time>
      </trkpt>
      <trkpt lat="46.8791" lon="4.29823">
        <ele>404.05</ele>
        <time>2020-07-10T04:55:30.999Z</time>
      </trkpt>
      <trkpt lat="46.879" lon="4.29836">
        <ele>403.92</ele>
        <time>2020-07-10T04:55:33.999Z</time>
      </trkpt>
      <trkpt lat="46.87898" lon="4.29849">
        <ele>403.75</ele>
        <time>2020-07-10T04:55:37.999Z</time>
      </trkpt>
      <trkpt lat="46.87899" lon="4.29863">
        <ele>403.59</ele>
        <time>2020-07-10T04:55:41.999Z</time>
      </trkpt>
      <trkpt lat="46.87898" lon="4.29877">
        <ele>403.43</ele>
        <time>2020-07-10T04:55:45.999Z</time>
      </trkpt>
      <trkpt lat="46.87896" lon="4.29892">
        <ele>403.24</ele>
        <time>2020-07-10T04:55:50.999Z</time>
      </trkpt>
      <trkpt lat="46.87888" lon="4.29901">
        <ele>402.91</ele>
        <time>2020-07-10T04:55:59.999Z</time>
      </trkpt>
      <trkpt lat="46.87879" lon="4.29905">
        <ele>402.59</ele>
        <time>2020-07-10T04:56:09.999Z</time>
      </trkpt>
      <trkpt lat="46.8787" lon="4.29909">
        <ele>402.32</ele>
        <time>2020-07-10T04:56:18.999Z</time>
      </trkpt>
      <trkpt lat="46.87862" lon="4.29916">
        <ele>402.09</ele>
        <time>2020-07-10T04:56:26.999Z</time>
      </trkpt>
      <trkpt lat="46.87853" lon="4.29916">
        <ele>401.76</ele>
        <time>2020-07-10T04:56:35.999Z</time>
      </trkpt>
      <trkpt lat="46.87845" lon="4.29924">
        <ele>401.45</ele>
        <time>2020-07-10T04:56:42.999Z</time>
      </trkpt>
      <trkpt lat="46.87835" lon="4.29931">
        <ele>401.22</ele>
        <time>2020-07-10T04:56:47.999Z</time>
      </trkpt>
      <trkpt lat="46.87826" lon="4.29938">
        <ele>400.84</ele>
        <time>2020-07-10T04:56:55.999Z</time>
      </trkpt>
      <trkpt lat="46.87817" lon="4.29945">
        <ele>400.52</ele>
        <time>2020-07-10T04:57:02.999Z</time>
      </trkpt>
      <trkpt lat="46.87813" lon="4.29962">
        <ele>399.91</ele>
        <time>2020-07-10T04:57:17.999Z</time>
      </trkpt>
      <trkpt lat="46.87807" lon="4.29973">
        <ele>399.68</ele>
        <time>2020-07-10T04:57:22.999Z</time>
      </trkpt>
      <trkpt lat="46.87803" lon="4.29984">
        <ele>399.36</ele>
        <time>2020-07-10T04:57:29.999Z</time>
      </trkpt>
      <trkpt lat="46.87795" lon="4.29993">
        <ele>399.05</ele>
        <time>2020-07-10T04:57:36.999Z</time>
      </trkpt>
      <trkpt lat="46.87785" lon="4.29992">
        <ele>398.65</ele>
        <time>2020-07-10T04:57:45.999Z</time>
      </trkpt>
      <trkpt lat="46.87776" lon="4.29986">
        <ele>398.35</ele>
        <time>2020-07-10T04:57:52.999Z</time>
      </trkpt>
      <trkpt lat="46.87765" lon="4.29989">
        <ele>398.06</ele>
        <time>2020-07-10T04:57:59.999Z</time>
      </trkpt>
      <trkpt lat="46.87755" lon="4.29989">
        <ele>397.8</ele>
        <time>2020-07-10T04:58:05.999Z</time>
      </trkpt>
      <trkpt lat="46.87745" lon="4.29984">
        <ele>397.49</ele>
        <time>2020-07-10T04:58:12.999Z</time>
      </trkpt>
      <trkpt lat="46.87737" lon="4.2998">
        <ele>397.23</ele>
        <time>2020-07-10T04:58:18.999Z</time>
      </trkpt>
      <trkpt lat="46.87728" lon="4.29976">
        <ele>396.97</ele>
        <time>2020-07-10T04:58:24.999Z</time>
      </trkpt>
      <trkpt lat="46.8772" lon="4.2997">
        <ele>396.73</ele>
        <time>2020-07-10T04:58:30.999Z</time>
      </trkpt>
      <trkpt lat="46.8771" lon="4.29966">
        <ele>396.41</ele>
        <time>2020-07-10T04:58:38.999Z</time>
      </trkpt>
      <trkpt lat="46.877" lon="4.2996">
        <ele>396.08</ele>
        <time>2020-07-10T04:58:47.999Z</time>
      </trkpt>
      <trkpt lat="46.87692" lon="4.29955">
        <ele>395.83</ele>
        <time>2020-07-10T04:58:55.999Z</time>
      </trkpt>
      <trkpt lat="46.87682" lon="4.29952">
        <ele>395.63</ele>
        <time>2020-07-10T04:59:02.999Z</time>
      </trkpt>
      <trkpt lat="46.87673" lon="4.29946">
        <ele>395.43</ele>
        <time>2020-07-10T04:59:10.999Z</time>
      </trkpt>
      <trkpt lat="46.87664" lon="4.29939">
        <ele>395.26</ele>
        <time>2020-07-10T04:59:18.999Z</time>
      </trkpt>
      <trkpt lat="46.87655" lon="4.29934">
        <ele>395.03</ele>
        <time>2020-07-10T04:59:27.999Z</time>
      </trkpt>
      <trkpt lat="46.87646" lon="4.29928">
        <ele>394.87</ele>
        <time>2020-07-10T04:59:33.999Z</time>
      </trkpt>
      <trkpt lat="46.87637" lon="4.29923">
        <ele>394.58</ele>
        <time>2020-07-10T04:59:42.999Z</time>
      </trkpt>
      <trkpt lat="46.87629" lon="4.29916">
        <ele>394.31</ele>
        <time>2020-07-10T04:59:49.999Z</time>
      </trkpt>
      <trkpt lat="46.87623" lon="4.29905">
        <ele>394.06</ele>
        <time>2020-07-10T04:59:55.999Z</time>
      </trkpt>
      <trkpt lat="46.87616" lon="4.29896">
        <ele>393.74</ele>
        <time>2020-07-10T05:00:01.999Z</time>
      </trkpt>
      <trkpt lat="46.8761" lon="4.29886">
        <ele>393.28</ele>
        <time>2020-07-10T05:00:09.999Z</time>
      </trkpt>
      <trkpt lat="46.87604" lon="4.29875">
        <ele>392.91</ele>
        <time>2020-07-10T05:00:15.999Z</time>
      </trkpt>
      <trkpt lat="46.876" lon="4.29862">
        <ele>392.32</ele>
        <time>2020-07-10T05:00:24.999Z</time>
      </trkpt>
      <trkpt lat="46.87595" lon="4.29851">
        <ele>391.77</ele>
        <time>2020-07-10T05:00:32.999Z</time>
      </trkpt>
      <trkpt lat="46.87587" lon="4.29842">
        <ele>391.32</ele>
        <time>2020-07-10T05:00:39.999Z</time>
      </trkpt>
      <trkpt lat="46.8758" lon="4.29834">
        <ele>391.07</ele>
        <time>2020-07-10T05:00:43.999Z</time>
      </trkpt>
      <trkpt lat="46.8757" lon="4.29828">
        <ele>390.63</ele>
        <time>2020-07-10T05:00:50.999Z</time>
      </trkpt>
      <trkpt lat="46.87562" lon="4.2982">
        <ele>390.05</ele>
        <time>2020-07-10T05:01:00.999Z</time>
      </trkpt>
      <trkpt lat="46.87554" lon="4.29812">
        <ele>389.61</ele>
        <time>2020-07-10T05:01:08.999Z</time>
      </trkpt>
      <trkpt lat="46.87546" lon="4.29806">
        <ele>389.27</ele>
        <time>2020-07-10T05:01:15.999Z</time>
      </trkpt>
      <trkpt lat="46.87537" lon="4.29802">
        <ele>388.93</ele>
        <time>2020-07-10T05:01:23.999Z</time>
      </trkpt>
      <trkpt lat="46.87529" lon="4.29795">
        <ele>388.68</ele>
        <time>2020-07-10T05:01:30.999Z</time>
      </trkpt>
      <trkpt lat="46.87522" lon="4.29784">
        <ele>388.41</ele>
        <time>2020-07-10T05:01:38.999Z</time>
      </trkpt>
      <trkpt lat="46.87513" lon="4.29776">
        <ele>388.19</ele>
        <time>2020-07-10T05:01:45.999Z</time>
      </trkpt>
      <trkpt lat="46.87507" lon="4.29765">
        <ele>388.01</ele>
        <time>2020-07-10T05:01:52.999Z</time>
      </trkpt>
      <trkpt lat="46.87501" lon="4.29754">
        <ele>387.87</ele>
        <time>2020-07-10T05:01:58.999Z</time>
      </trkpt>
      <trkpt lat="46.87495" lon="4.29743">
        <ele>387.7</ele>
        <time>2020-07-10T05:02:07.999Z</time>
      </trkpt>
      <trkpt lat="46.87489" lon="4.29732">
        <ele>387.54</ele>
        <time>2020-07-10T05:02:16.999Z</time>
      </trkpt>
      <trkpt lat="46.87481" lon="4.29723">
        <ele>387.45</ele>
        <time>2020-07-10T05:02:22.999Z</time>
      </trkpt>
      <trkpt lat="46.87474" lon="4.29712">
        <ele>387.35</ele>
        <time>2020-07-10T05:02:28.999Z</time>
      </trkpt>
      <trkpt lat="46.87468" lon="4.29701">
        <ele>387.25</ele>
        <time>2020-07-10T05:02:35.999Z</time>
      </trkpt>
      <trkpt lat="46.87461" lon="4.29691">
        <ele>387.16</ele>
        <time>2020-07-10T05:02:42.999Z</time>
      </trkpt>
      <trkpt lat="46.87454" lon="4.2968">
        <ele>387.07</ele>
        <time>2020-07-10T05:02:49.999Z</time>
      </trkpt>
      <trkpt lat="46.87447" lon="4.29673">
        <ele>387</ele>
        <time>2020-07-10T05:02:56.999Z</time>
      </trkpt>
      <trkpt lat="46.87439" lon="4.29665">
        <ele>386.92</ele>
        <time>2020-07-10T05:03:04.999Z</time>
      </trkpt>
      <trkpt lat="46.87432" lon="4.29656">
        <ele>386.85</ele>
        <time>2020-07-10T05:03:11.999Z</time>
      </trkpt>
      <trkpt lat="46.87425" lon="4.29649">
        <ele>386.8</ele>
        <time>2020-07-10T05:03:18.999Z</time>
      </trkpt>
      <trkpt lat="46.87416" lon="4.2964">
        <ele>386.75</ele>
        <time>2020-07-10T05:03:25.999Z</time>
      </trkpt>
      <trkpt lat="46.87408" lon="4.29633">
        <ele>386.71</ele>
        <time>2020-07-10T05:03:31.999Z</time>
      </trkpt>
      <trkpt lat="46.87405" lon="4.29619">
        <ele>386.62</ele>
        <time>2020-07-10T05:03:40.999Z</time>
      </trkpt>
      <trkpt lat="46.87395" lon="4.29619">
        <ele>386.47</ele>
        <time>2020-07-10T05:03:47.999Z</time>
      </trkpt>
      <trkpt lat="46.87387" lon="4.29611">
        <ele>386.28</ele>
        <time>2020-07-10T05:03:56.999Z</time>
      </trkpt>
      <trkpt lat="46.87379" lon="4.29603">
        <ele>386.15</ele>
        <time>2020-07-10T05:04:03.999Z</time>
      </trkpt>
      <trkpt lat="46.87371" lon="4.29595">
        <ele>386.03</ele>
        <time>2020-07-10T05:04:10.999Z</time>
      </trkpt>
      <trkpt lat="46.87363" lon="4.29585">
        <ele>385.96</ele>
        <time>2020-07-10T05:04:15.999Z</time>
      </trkpt>
      <trkpt lat="46.87355" lon="4.29576">
        <ele>385.86</ele>
        <time>2020-07-10T05:04:22.999Z</time>
      </trkpt>
      <trkpt lat="46.87349" lon="4.29565">
        <ele>385.77</ele>
        <time>2020-07-10T05:04:29.999Z</time>
      </trkpt>
      <trkpt lat="46.87345" lon="4.29552">
        <ele>385.67</ele>
        <time>2020-07-10T05:04:37.999Z</time>
      </trkpt>
      <trkpt lat="46.87343" lon="4.29536">
        <ele>385.55</ele>
        <time>2020-07-10T05:04:45.999Z</time>
      </trkpt>
      <trkpt lat="46.87341" lon="4.29523">
        <ele>385.38</ele>
        <time>2020-07-10T05:04:52.999Z</time>
      </trkpt>
    </trkseg>
  </trk>
</gpx>